Latest Weather Observations for Marree Airport

IDS60801

Issued at 8:11 am CST Wednesday 22 September 2021 (issued every 10 minutes, with the page automatically refreshed every 10 minutes)

About weather observations | Map of weather stations | Latest weather observations for SA | Other Formats
Station Details ID: 017126 Name: MARREE AERO Lat: -29.66 Lon: 138.07 Height: 50.0 m
Data from the previous 72 hours. | See also: Recent months at Marree Airport
Date/Time
CST
Temp
°C
App
Temp
°C
Dew
Point
°C
Rel
Hum
%
Delta-T
°C
Wind Press
QNH
hPa
Press
MSL
hPa
Rain since
9am
mm
Dir  Spd
km/h
Gust
km/h
Spd
kts
Gust
kts
22/08:00am 12.4 8.0 2.8 52 4.2 SE 15 17 8 9 1032.3 1032.2 0.0
22/07:30am 10.9 6.9 2.7 57 3.5 SSE 13 17 7 9 1032.0 1031.9 0.0
22/07:00am 8.9 4.8 2.3 63 2.8 SSE 13 15 7 8 1031.5 1031.4 0.0
22/06:30am 7.8 2.9 2.3 68 2.3 SSE 17 19 9 10 1031.4 1031.3 0.0
22/06:00am 7.5 2.3 2.4 70 2.1 S 19 20 10 11 1031.1 1031.0 0.0
22/05:30am 6.5 2.3 1.8 72 1.9 S 13 17 7 9 1030.8 1030.7 0.0
22/05:00am 7.2 2.3 2.3 71 2.0 SSE 17 19 9 10 1030.6 1030.5 0.0
22/04:30am 7.5 2.7 2.4 70 2.1 SSE 17 19 9 10 1030.3 1030.2 0.0
22/04:00am 7.9 3.4 2.4 68 2.3 SE 15 17 8 9 1030.1 1030.0 0.0
22/03:30am 8.7 3.6 2.9 67 2.4 SE 19 20 10 11 1030.1 1030.0 0.0
22/03:00am 9.7 4.7 3.4 65 2.7 SE 19 22 10 12 1029.9 1029.9 0.0
22/02:30am 10.4 5.2 3.4 62 3.0 SSE 20 22 11 12 1030.1 1030.0 0.0
22/02:00am 10.9 5.3 3.5 60 3.3 S 22 30 12 16 1030.3 1030.2 0.0
22/01:30am 11.2 6.0 3.5 59 3.4 SSE 20 24 11 13 1030.6 1030.5 0.0
22/01:00am 11.8 6.2 3.3 56 3.8 S 22 28 12 15 1030.8 1030.7 0.0
22/12:30am 12.1 6.4 3.1 54 3.9 S 22 26 12 14 1031.1 1031.0 0.0
22/12:00am 12.7 7.0 2.8 51 4.3 S 22 28 12 15 1031.3 1031.2 0.0
 
Date/Time
CST
Temp
°C
App
Temp
°C
Dew
Point
°C
Rel
Hum
%
Delta-T
°C
Wind Press
QNH
hPa
Press
MSL
hPa
Rain since
9am
mm
Dir  Spd
km/h
Gust
km/h
Spd
kts
Gust
kts
21/11:30pm 13.0 6.9 2.8 50 4.5 S 24 30 13 16 1031.2 1031.1 0.0
21/11:00pm 13.3 7.9 2.2 47 4.9 S 20 24 11 13 1031.4 1031.3 0.0
21/10:30pm 13.8 7.9 1.8 44 5.2 S 22 28 12 15 1031.5 1031.4 0.0
21/10:00pm 14.4 8.0 1.0 40 5.8 S 24 28 13 15 1031.5 1031.4 0.0
21/09:30pm 14.5 8.8 0.4 38 5.9 SSW 20 24 11 13 1031.6 1031.5 0.0
21/09:00pm 14.9 9.1 0.0 36 6.2 SSW 20 24 11 13 1031.6 1031.5 0.0
21/08:30pm 15.1 9.9 -0.2 35 6.4 SSW 17 22 9 12 1031.4 1031.3 0.0
21/08:00pm 15.4 9.7 -0.8 33 6.8 SSW 19 22 10 12 1031.2 1031.1 0.0
21/07:30pm 15.9 10.2 -0.8 32 6.9 SSW 19 28 10 15 1031.0 1030.9 0.0
21/07:00pm 16.4 9.7 -0.8 31 7.2 SSW 24 28 13 15 1030.9 1030.8 0.0
21/06:30pm 16.9 9.9 -0.8 30 7.4 SSW 26 33 14 18 1030.6 1030.5 0.0
21/06:00pm 17.5 10.0 -1.2 28 7.8 SSW 28 35 15 19 1030.5 1030.4 0.0
21/05:30pm 18.4 11.3 -1.4 26 8.3 S 26 33 14 18 1030.5 1030.4 0.0
21/05:00pm 18.9 12.5 -1.5 25 8.7 S 22 33 12 18 1030.5 1030.4 0.0
21/04:30pm 19.3 12.5 -1.7 24 8.8 S 24 33 13 18 1030.6 1030.5 0.0
21/04:00pm 19.0 12.3 -1.4 25 8.7 S 24 35 13 19 1030.6 1030.5 0.0
21/03:30pm 19.6 13.8 -1.5 24 9.0 S 19 33 10 18 1030.6 1030.5 0.0
21/03:00pm 18.4 12.5 -2.0 25 8.5 S 19 33 10 18 1030.7 1030.6 0.0
21/02:30pm 18.3 13.2 -2.0 25 8.4 SSE 15 28 8 15 1031.1 1031.0 0.0
21/02:00pm 18.5 12.4 -2.4 24 8.7 S 20 30 11 16 1031.4 1031.3 0.0
21/01:30pm 17.8 11.4 -1.9 26 8.1 S 22 33 12 18 1031.7 1031.6 0.0
21/01:00pm 17.0 12.0 -1.1 29 7.6 SSE 15 24 8 13 1032.1 1032.0 0.0
21/12:30pm 17.3 10.6 -0.9 29 7.6 S 24 35 13 19 1032.6 1032.5 0.0
21/12:00pm 17.0 10.7 -0.7 30 7.4 SSE 22 35 12 19 1032.9 1032.8 0.0
21/11:30am 16.0 9.3 -1.1 31 7.1 SSE 24 44 13 24 1033.4 1033.3 0.0
21/11:09am 16.7 9.0 -0.1 32 7.2 SSE 30 52 16 28 1033.5 1033.4 0.0
21/11:00am 16.4 8.6 -0.8 31 7.2 SSE 30 44 16 24 1033.6 1033.5 0.0
21/10:30am 15.6 7.3 -0.6 33 6.7 SSE 33 43 18 23 1033.9 1033.8 0.0
21/10:00am 15.2 6.7 0.6 37 6.3 S 35 46 19 25 1034.0 1033.9 0.0
21/09:30am 13.9 5.3 0.5 40 5.6 SSE 35 48 19 26 1034.0 1033.9 0.0
21/09:00am 13.7 5.2 1.0 42 5.4 S 35 43 19 23 1033.8 1033.7 0.0
21/08:30am 13.1 4.7 1.5 45 4.9 SSE 35 46 19 25 1033.3 1033.2 0.0
21/08:00am 12.2 4.5 2.1 50 4.4 S 32 41 17 22 1032.9 1032.8 0.0
21/07:30am 11.5 4.7 3.3 57 3.6 S 28 37 15 20 1032.6 1032.5 0.0
21/07:00am 9.7 4.7 3.4 65 2.7 S 19 24 10 13 1032.3 1032.2 0.0
21/06:30am 8.8 3.7 3.0 67 2.5 S 19 24 10 13 1031.9 1031.8 0.0
21/06:00am 8.9 3.6 2.9 66 2.5 SSW 20 24 11 13 1031.3 1031.2 0.0
21/05:30am 9.0 3.3 2.6 64 2.7 SSW 22 28 12 15 1030.8 1030.7 0.0
21/05:00am 9.4 3.3 2.7 63 2.9 SSW 24 32 13 17 1030.4 1030.3 0.0
21/04:30am 9.3 4.1 2.4 62 2.9 SSW 19 26 10 14 1030.4 1030.3 0.0
21/04:00am 9.5 4.1 2.6 62 2.9 S 20 24 11 13 1030.2 1030.1 0.0
21/03:30am 10.0 4.7 2.8 61 3.1 SSW 20 24 11 13 1029.9 1029.9 0.0
21/03:00am 10.3 4.2 2.9 60 3.2 SSW 24 32 13 17 1029.8 1029.8 0.0
21/02:30am 10.3 4.6 2.9 60 3.2 S 22 28 12 15 1030.1 1030.0 0.0
21/02:00am 10.7 5.5 3.3 60 3.2 S 20 28 11 15 1029.9 1029.9 0.0
21/01:30am 11.1 5.5 3.2 58 3.4 S 22 28 12 15 1029.7 1029.7 0.0
21/01:00am 11.9 4.1 2.9 54 3.9 S 33 43 18 23 1029.7 1029.7 0.0
21/12:30am 12.3 3.3 2.5 51 4.2 S 39 48 21 26 1029.5 1029.5 0.0
21/12:06am 12.7 4.4 2.3 49 4.5 S 35 54 19 29 1029.3 1029.3 0.0
21/12:00am 13.0 4.0 2.6 49 4.5 S 39 54 21 29 1029.2 1029.2 0.0
 
Date/Time
CST
Temp
°C
App
Temp
°C
Dew
Point
°C
Rel
Hum
%
Delta-T
°C
Wind Press
QNH
hPa
Press
MSL
hPa
Rain since
9am
mm
Dir  Spd
km/h
Gust
km/h
Spd
kts
Gust
kts
20/11:30pm 13.3 5.1 2.5 48 4.7 S 35 44 19 24 1028.9 1028.9 0.0
20/11:00pm 13.8 5.2 2.4 46 5.0 S 37 50 20 27 1028.9 1028.9 0.0
20/10:30pm 14.8 5.3 -0.5 35 6.3 SSW 39 50 21 27 1028.8 1028.8 0.0
20/10:00pm 15.2 7.5 -0.1 35 6.5 SSW 30 44 16 24 1028.5 1028.5 0.0
20/09:30pm 15.9 6.8 -0.3 33 6.8 SSW 37 48 20 26 1028.2 1028.1 0.0
20/09:00pm 16.5 6.7 -0.2 32 7.1 SSW 41 52 22 28 1027.7 1027.6 0.0
20/08:30pm 16.9 7.5 -0.3 31 7.3 SSW 39 48 21 26 1027.1 1027.0 0.0
20/08:00pm 17.5 8.0 -0.7 29 7.8 SSW 39 50 21 27 1026.5 1026.4 0.0
20/07:30pm 17.7 9.2 -1.5 27 8.0 SSW 33 44 18 24 1026.0 1025.9 0.0
20/07:00pm 18.3 9.1 -1.5 26 8.4 SSW 37 46 20 25 1025.4 1025.3 0.0
20/06:30pm 18.6 9.0 -1.3 26 8.4 SSW 39 52 21 28 1025.0 1024.9 0.0
20/06:00pm 19.1 9.4 -1.9 24 8.8 SSW 39 48 21 26 1024.5 1024.4 0.0
20/05:30pm 19.7 9.2 -2.6 22 9.3 SSW 43 56 23 30 1024.1 1024.0 0.0
20/05:00pm 20.2 9.6 -2.2 22 9.5 SSW 44 56 24 30 1024.0 1023.9 0.0
20/04:35pm 20.6 10.5 -2.5 21 9.8 SSW 41 59 22 32 1023.9 1023.8 0.0
20/04:30pm 20.8 10.3 -2.3 21 9.8 SSW 43 59 23 32 1023.8 1023.7 0.0
20/04:03pm 20.7 10.0 -3.0 20 9.9 SSW 44 63 24 34 1023.4 1023.3 0.0
20/04:00pm 20.8 10.2 -3.6 19 10.1 SSW 43 54 23 29 1023.5 1023.4 0.0
20/03:30pm 21.2 10.4 -3.3 19 10.2 SSW 44 56 24 30 1023.3 1023.2 0.0
20/03:03pm 21.3 11.3 -1.9 21 10.0 SSW 41 65 22 35 1023.2 1023.1 0.0
20/03:00pm 21.3 11.3 -1.3 22 9.8 SSW 41 56 22 30 1023.2 1023.1 0.0
20/02:30pm 21.0 11.0 0.8 26 9.1 SSW 43 57 23 31 1023.3 1023.2 0.0
20/02:00pm 21.6 11.7 1.8 27 9.2 SSW 43 61 23 33 1023.7 1023.6 0.0
20/01:33pm 21.4 12.0 2.2 28 9.0 SSW 41 61 22 33 1023.7 1023.6 0.0
20/01:30pm 21.7 12.7 2.4 28 9.0 SSW 39 54 21 29 1023.9 1023.8 0.0
20/01:00pm 20.9 10.9 2.2 29 8.7 SSW 44 56 24 30 1024.1 1024.0 0.0
20/12:35pm 21.5 13.1 3.7 31 8.6 SW 37 57 20 31 1024.2 1024.1 0.0
20/12:30pm 21.1 12.0 3.8 32 8.3 SSW 41 56 22 30 1024.2 1024.1 0.0
20/12:10pm 21.2 13.6 5.6 36 7.8 SSW 35 65 19 35 1024.3 1024.2 0.0
20/12:00pm 20.5 12.9 5.7 38 7.3 SSW 35 48 19 26 1024.6 1024.5 0.0
20/11:32am 20.3 12.1 6.6 41 6.9 SSW 39 57 21 31 1025.0 1024.9 0.0
20/11:30am 20.3 11.7 6.6 41 6.9 SSW 41 57 22 31 1025.0 1024.9 0.0
20/11:19am 20.1 11.5 6.5 41 6.8 SSW 41 59 22 32 1025.0 1024.9 0.0
20/11:00am 19.8 11.0 7.9 46 6.1 SSW 44 57 24 31 1025.0 1024.9 0.0
20/10:30am 19.1 9.7 7.2 46 6.0 SSW 46 57 25 31 1025.0 1024.9 0.0
20/10:00am 19.0 10.0 7.4 47 5.9 SSW 44 59 24 32 1024.7 1024.6 0.0
20/09:30am 18.3 9.6 7.7 50 5.4 SSW 43 57 23 31 1024.8 1024.7 0.0
20/09:00am 17.8 9.1 7.5 51 5.2 SSW 43 56 23 30 1024.5 1024.4 0.0
20/08:30am 17.7 8.7 7.4 51 5.2 S 44 56 24 30 1024.1 1024.0 0.0
20/08:00am 17.2 9.1 7.0 51 5.1 S 39 54 21 29 1023.5 1023.4 0.0
20/07:30am 16.4 8.3 3.1 41 6.1 S 35 46 19 25 1023.0 1022.9 0.0
20/07:00am 15.5 8.0 -1.1 32 6.9 S 28 37 15 20 1022.7 1022.6 0.0
20/06:30am 13.5 7.4 -2.4 33 6.3 S 20 26 11 14 1022.2 1022.1 0.0
20/06:00am 12.9 6.9 -3.0 33 6.1 S 19 22 10 12 1021.7 1021.6 0.0
20/05:30am 12.6 5.8 -4.9 29 6.4 SW 22 24 12 13 1021.1 1021.0 0.0
20/05:00am 9.2 2.7 -6.2 33 5.3 WSW 20 22 11 12 1020.6 1020.5 0.0
20/04:30am 9.1 3.1 -6.7 32 5.3 WSW 17 24 9 13 1020.4 1020.3 0.0
20/04:00am 8.9 4.1 -6.5 33 5.2 W 11 13 6 7 1019.9 1019.8 0.0
20/03:30am 8.3 3.8 -7.0 33 5.1 W 9 9 5 5 1019.9 1019.8 0.0
20/03:00am 8.8 6.0 -7.0 32 5.3 CALM 0 0 0 0 1019.8 1019.7 0.0
20/02:30am 10.0 6.1 -6.8 30 5.7 NNW 6 6 3 3 1019.8 1019.7 0.0
20/02:00am 10.2 6.3 -7.0 29 5.9 NNW 6 7 3 4 1020.0 1019.9 0.0
20/01:30am 10.1 5.6 -6.7 30 5.8 NNW 9 11 5 6 1020.4 1020.3 0.0
20/01:00am 10.8 8.1 -6.1 30 5.9 CALM 0 0 0 0 1020.8 1020.7 0.0
20/12:30am 10.9 8.1 -6.9 28 6.1 CALM 0 7 0 4 1021.0 1020.9 0.0
20/12:00am 12.5 9.7 -7.0 25 6.8 CALM 0 0 0 0 1020.9 1020.8 0.0
 
Date/Time
CST
Temp
°C
App
Temp
°C
Dew
Point
°C
Rel
Hum
%
Delta-T
°C
Wind Press
QNH
hPa
Press
MSL
hPa
Rain since
9am
mm
Dir  Spd
km/h
Gust
km/h
Spd
kts
Gust
kts
19/11:30pm 13.2 10.4 -6.9 24 7.1 CALM 0 0 0 0 1021.1 1021.0 0.0
19/11:00pm 14.1 10.2 -6.7 23 7.5 SSE 6 9 3 5 1021.3 1021.2 0.0
19/10:30pm 12.9 8.0 -7.2 24 7.1 SSE 11 15 6 8 1021.5 1021.4 0.0
19/10:00pm 16.3 11.8 -6.7 20 8.5 NW 9 11 5 6 1021.5 1021.4 0.0
19/09:30pm 17.4 12.9 -6.4 19 9.0 NW 9 11 5 6 1021.6 1021.5 0.0
19/09:00pm 17.9 14.0 -6.7 18 9.3 SSE 6 6 3 3 1021.5 1021.4 0.0
19/08:30pm 19.8 15.7 -6.7 16 10.2 SW 7 9 4 5 1021.2 1021.1 0.0
19/08:00pm 19.1 13.9 -6.5 17 9.8 SW 13 15 7 8 1020.9 1020.8 0.0
19/07:30pm 18.6 13.0 -6.9 17 9.6 WNW 15 15 8 8 1020.6 1020.5 0.0
19/07:00pm 20.0 14.8 -6.5 16 10.3 WNW 13 15 7 8 1020.3 1020.2 0.0
19/06:30pm 21.7 16.4 -6.9 14 11.2 WNW 13 15 7 8 1020.0 1019.9 0.0
19/06:00pm 24.2 18.8 -8.1 11 12.7 W 13 17 7 9 1019.9 1019.8 0.0
19/05:30pm 25.3 19.6 -7.2 11 13.1 W 15 19 8 10 1019.8 1019.7 0.0
19/05:00pm 25.7 19.9 -8.2 10 13.5 W 15 20 8 11 1019.7 1019.6 0.0
19/04:30pm 26.0 19.9 -7.9 10 13.6 W 17 24 9 13 1019.8 1019.7 0.0
19/04:00pm 26.3 20.2 -7.7 10 13.7 W 17 22 9 12 1019.9 1019.8 0.0
19/03:30pm 26.5 20.9 -6.3 11 13.6 NW 15 24 8 13 1020.2 1020.1 0.0
19/03:00pm 26.9 20.6 -6.0 11 13.8 WNW 19 26 10 14 1020.5 1020.4 0.0
19/02:30pm 25.6 19.8 -8.2 10 13.4 W 15 24 8 13 1020.9 1020.8 0.0
19/02:00pm 26.4 21.7 -5.3 12 13.4 WSW 11 20 6 11 1021.5 1021.4 0.0
19/01:30pm 25.4 19.8 -6.0 12 12.9 NW 15 20 8 11 1022.2 1022.1 0.0
19/01:00pm 24.8 20.1 -5.5 13 12.6 SW 11 22 6 12 1022.7 1022.6 0.0
19/12:30pm 23.8 19.3 -3.5 16 11.6 WSW 11 19 6 10 1023.4 1023.3 0.0
19/12:00pm 23.4 19.0 -2.2 18 11.1 NW 11 17 6 9 1023.9 1023.8 0.0
19/11:30am 22.8 19.5 -1.3 20 10.6 SSW 6 11 3 6 1024.6 1024.5 0.0
19/11:00am 21.8 18.3 -1.5 21 10.2 W 7 15 4 8 1025.0 1024.9 0.0
19/10:30am 21.1 17.6 -1.4 22 9.7 W 7 13 4 7 1025.3 1025.2 0.0
19/10:00am 20.4 16.9 -1.4 23 9.4 ESE 7 11 4 6 1025.6 1025.5 0.0
19/09:30am 19.4 16.0 -0.6 26 8.6 SE 7 11 4 6 1025.7 1025.6 0.0
19/09:00am 17.6 13.5 -0.2 30 7.6 ESE 11 13 6 7 1025.6 1025.5 0.0
19/08:30am 15.5 11.3 -1.1 32 6.8 SE 11 15 6 8 1025.2 1025.1 0.0

Other formats

Comma delimited format used in spreadsheet applications
http://www.bom.gov.au/fwo/IDS60801/IDS60801.95480.axf

JavaScript Object Notation format (JSON) in row-major order
http://www.bom.gov.au/fwo/IDS60801/IDS60801.95480.json

Data quality

Most of these data are generated automatically and are frequently updated. Quality checks on data are not normally performed. It is possible for incorrect values to appear. Refer to information at About Latest Weather Observations and please check the disclaimer before using these data.